Time;durP1;ratioP1;P1;durP2;ratioP2;P2;SDS_P1;SDS_P2;PMS_P1;PMS_P2;Temp;Humidity;BMP_temperature;BMP_pressure;BME280_temperature;BME280_humidity;BME280_pressure;Samples;Min_cycle;Max_cycle;Signal;HPM_P1;HPM_P2
2021/01/03 00:01:17;;;;;;;11.77;5.00;;;;;;;3.03;100.00;97386.91;5073226;28;20711;-75
2021/01/03 00:03:45;;;;;;;7.83;4.23;;;;;;;3.14;100.00;97381.28;5071523;28;20610;-76
2021/01/03 00:06:14;;;;;;;8.93;4.37;;;;;;;3.06;100.00;97375.22;5067668;28;20196;-76
2021/01/03 00:08:42;;;;;;;8.23;3.90;;;;;;;3.06;100.00;97373.38;5055201;28;20698;-76
2021/01/03 00:11:09;;;;;;;8.53;4.83;;;;;;;2.90;100.00;97376.06;5058498;28;20246;-76
2021/01/03 00:13:36;;;;;;;7.47;3.73;;;;;;;2.98;100.00;97372.59;5072089;28;20199;-76
2021/01/03 00:16:03;;;;;;;6.20;3.30;;;;;;;2.98;100.00;97372.59;5056895;28;20201;-73
2021/01/03 00:18:30;;;;;;;6.67;4.10;;;;;;;2.80;100.00;97372.78;5061350;28;20823;-75
2021/01/03 00:20:58;;;;;;;7.23;3.77;;;;;;;2.94;100.00;97376.53;5068120;28;20244;-76
2021/01/03 00:23:24;;;;;;;7.03;3.73;;;;;;;2.94;100.00;97377.38;5066952;28;20201;-76
2021/01/03 00:25:51;;;;;;;6.30;3.83;;;;;;;3.00;100.00;97371.41;5068095;28;20233;-74
2021/01/03 00:28:18;;;;;;;8.27;4.10;;;;;;;3.07;100.00;97374.22;5047697;28;20612;-74
2021/01/03 00:30:45;;;;;;;8.20;4.10;;;;;;;2.56;100.00;97370.22;5052720;28;20225;-76
2021/01/03 00:33:12;;;;;;;5.87;3.73;;;;;;;2.68;100.00;97368.88;5066955;28;20201;-73
2021/01/03 00:35:39;;;;;;;6.17;3.70;;;;;;;2.84;100.00;97371.47;5072890;28;20581;-76
2021/01/03 00:38:08;;;;;;;6.43;3.53;;;;;;;3.01;100.00;97380.16;5065038;28;20204;-75
2021/01/03 00:40:36;;;;;;;7.03;3.97;;;;;;;2.82;100.00;97372.63;5067016;28;20287;-75
2021/01/03 00:43:03;;;;;;;7.37;4.17;;;;;;;2.78;100.00;97374.78;5055452;28;20197;-75
2021/01/03 00:45:30;;;;;;;6.90;3.77;;;;;;;2.67;100.00;97376.94;5055681;28;20334;-75
2021/01/03 00:47:58;;;;;;;8.67;4.00;;;;;;;2.87;100.00;97381.69;5065689;28;20217;-75
2021/01/03 00:50:26;;;;;;;5.13;3.27;;;;;;;2.91;100.00;97383.00;5060186;28;20699;-75
2021/01/03 00:52:53;;;;;;;6.43;4.13;;;;;;;2.64;100.00;97372.81;5068834;28;20666;-76
2021/01/03 00:55:21;;;;;;;8.47;4.53;;;;;;;2.76;100.00;97379.41;5067599;28;20608;-75
2021/01/03 00:57:48;;;;;;;5.30;3.53;;;;;;;2.91;100.00;97376.91;5050547;28;20215;-76
2021/01/03 01:00:17;;;;;;;8.43;4.33;;;;;;;2.62;100.00;97374.81;5068720;28;20238;-74
2021/01/03 01:02:44;;;;;;;8.53;4.33;;;;;;;2.94;100.00;97374.75;5070543;28;20197;-76
2021/01/03 01:05:12;;;;;;;6.13;4.00;;;;;;;2.82;100.00;97381.38;5070032;28;20197;-74
2021/01/03 01:07:39;;;;;;;8.57;4.37;;;;;;;2.79;100.00;97368.53;5065132;28;20240;-76
2021/01/03 01:10:07;;;;;;;8.27;4.00;;;;;;;2.81;100.00;97371.81;5072170;28;20689;-76
2021/01/03 01:12:36;;;;;;;7.53;4.13;;;;;;;2.61;100.00;97373.19;5051503;28;20254;-74
2021/01/03 01:15:04;;;;;;;7.03;4.07;;;;;;;2.57;100.00;97371.88;5063195;28;20685;-74
2021/01/03 01:17:30;;;;;;;8.73;4.77;;;;;;;2.36;100.00;97379.47;5068532;28;20193;-74
2021/01/03 01:19:57;;;;;;;6.07;4.20;;;;;;;2.58;100.00;97376.13;5057763;28;20718;-76
2021/01/03 01:22:24;;;;;;;8.70;4.40;;;;;;;2.55;100.00;97371.19;5067852;28;20201;-76
2021/01/03 01:24:51;;;;;;;7.43;4.40;;;;;;;2.71;100.00;97375.63;5066536;28;20206;-76
2021/01/03 01:27:18;;;;;;;6.97;4.10;;;;;;;2.85;100.00;97372.31;5054515;28;20205;-76
2021/01/03 01:29:45;;;;;;;6.93;4.10;;;;;;;2.74;100.00;97377.94;5061831;28;20200;-75
2021/01/03 01:32:12;;;;;;;7.57;4.27;;;;;;;2.80;100.00;97375.44;5068963;28;20220;-75
2021/01/03 01:34:39;;;;;;;8.17;4.23;;;;;;;2.55;100.00;97371.19;5069549;28;20201;-75
2021/01/03 01:37:06;;;;;;;6.97;3.80;;;;;;;2.60;100.00;97370.72;5065348;28;20207;-74
2021/01/03 01:39:32;;;;;;;8.07;4.33;;;;;;;2.84;100.00;97379.38;5060189;28;20197;-75
2021/01/03 01:41:59;;;;;;;8.67;4.03;;;;;;;2.77;100.00;97385.47;5053998;28;20234;-75
2021/01/03 01:44:26;;;;;;;6.67;4.50;;;;;;;3.03;100.00;97378.16;5059446;28;20201;-75
2021/01/03 01:47:01;;;;;;;9.57;4.90;;;;;;;2.74;100.00;97384.00;5070023;28;20560;-75
2021/01/03 01:49:28;;;;;;;9.37;4.97;;;;;;;2.83;100.00;97376.91;5064041;28;20239;-75
2021/01/03 01:51:56;;;;;;;8.30;4.20;;;;;;;2.70;100.00;97380.06;5069456;28;20591;-75
2021/01/03 01:54:26;;;;;;;6.97;4.00;;;;;;;2.82;100.00;97378.72;5059342;28;20217;-75
2021/01/03 01:56:58;;;;;;;8.30;4.43;;;;;;;2.87;100.00;97378.22;5057868;28;20603;-75
2021/01/03 01:59:32;;;;;;;7.00;4.17;;;;;;;2.56;100.00;97377.28;5054638;28;20672;-75
2021/01/03 02:02:03;;;;;;;5.57;3.90;;;;;;;2.66;100.00;97381.41;5066033;28;20588;-75
2021/01/03 02:04:32;;;;;;;8.43;4.70;;;;;;;2.77;100.00;97383.69;5066734;28;20275;-75
2021/01/03 02:07:04;;;;;;;8.73;4.20;;;;;;;2.59;100.00;97372.50;5053439;28;20227;-75
2021/01/03 02:09:38;;;;;;;5.83;3.93;;;;;;;2.57;100.00;97378.94;5066799;28;20208;-75
2021/01/03 02:12:15;;;;;;;10.50;4.70;;;;;;;2.68;100.00;97371.50;5051204;28;20198;-75
2021/01/03 02:14:43;;;;;;;8.83;5.03;;;;;;;2.48;100.00;97385.19;5067443;28;20201;-75
2021/01/03 02:17:10;;;;;;;6.63;4.43;;;;;;;2.49;100.00;97379.75;5069975;28;20217;-75
2021/01/03 02:19:37;;;;;;;8.60;5.07;;;;;;;2.51;100.00;97380.44;5071628;28;20212;-75
2021/01/03 02:22:11;;;;;;;8.20;4.70;;;;;;;2.65;100.00;97376.31;5071440;28;20197;-75
2021/01/03 02:24:44;;;;;;;9.47;5.30;;;;;;;2.38;100.00;97382.72;5070856;28;20194;-75
2021/01/03 02:27:17;;;;;;;8.27;4.80;;;;;;;2.54;100.00;97377.44;5055359;28;20197;-74
2021/01/03 02:29:45;;;;;;;8.73;5.20;;;;;;;2.52;100.00;97374.19;5068772;28;20200;-75
2021/01/03 02:32:13;;;;;;;7.53;4.33;;;;;;;2.47;100.00;97389.66;5073035;28;20197;-75
2021/01/03 02:34:42;;;;;;;10.50;5.27;;;;;;;2.41;100.00;97381.59;5067171;28;20208;-75
2021/01/03 02:37:11;;;;;;;9.70;5.37;;;;;;;2.54;100.00;97381.91;5071191;28;20197;-75
2021/01/03 02:39:46;;;;;;;8.63;5.23;;;;;;;2.50;100.00;97380.59;5071313;28;20201;-75
2021/01/03 02:42:16;;;;;;;8.30;5.50;;;;;;;2.12;100.00;97384.72;5058199;28;20526;-75
2021/01/03 02:44:43;;;;;;;9.40;5.23;;;;;;;2.47;100.00;97381.75;5073437;28;20564;-75
2021/01/03 02:47:10;;;;;;;10.20;5.37;;;;;;;2.49;100.00;97384.22;5062572;28;20201;-75
2021/01/03 02:49:37;;;;;;;10.43;5.60;;;;;;;2.47;100.00;97383.56;5055068;28;20229;-75
2021/01/03 02:52:08;;;;;;;8.80;5.23;;;;;;;2.26;100.00;97381.44;5063177;28;20281;-75
2021/01/03 02:54:35;;;;;;;9.17;5.90;;;;;;;2.43;100.00;97382.22;5072969;28;20193;-75
2021/01/03 02:57:02;;;;;;;8.37;5.13;;;;;;;2.29;100.00;97380.28;5054728;28;20205;-75
2021/01/03 02:59:29;;;;;;;8.77;5.50;;;;;;;2.46;100.00;97384.53;5070973;28;20196;-75
2021/01/03 03:01:56;;;;;;;11.57;5.90;;;;;;;2.40;100.00;97383.38;5055585;28;20267;-74
2021/01/03 03:04:23;;;;;;;12.60;6.97;;;;;;;2.10;100.00;97381.44;5069655;28;20193;-75
2021/01/03 03:06:50;;;;;;;9.47;5.80;;;;;;;2.05;100.00;97381.09;5073711;28;20208;-74
2021/01/03 03:09:16;;;;;;;10.80;5.93;;;;;;;2.16;100.00;97386.03;5067660;28;20291;-75
2021/01/03 03:11:46;;;;;;;9.70;6.03;;;;;;;2.33;100.00;97378.94;5052573;28;20225;-75
2021/01/03 03:14:13;;;;;;;11.00;6.03;;;;;;;2.14;100.00;97377.47;5063014;28;20208;-75
2021/01/03 03:16:41;;;;;;;11.57;5.90;;;;;;;2.25;100.00;97379.75;5074132;28;20211;-75
2021/01/03 03:19:08;;;;;;;11.47;6.17;;;;;;;2.14;100.00;97379.28;5074473;28;20201;-75
2021/01/03 03:21:34;;;;;;;13.03;6.73;;;;;;;2.18;100.00;97376.16;5060701;28;20222;-75
2021/01/03 03:24:01;;;;;;;11.00;6.03;;;;;;;2.21;100.00;97370.56;5073119;28;20228;-75
2021/01/03 03:26:28;;;;;;;11.17;6.63;;;;;;;1.98;100.00;97377.47;5054297;28;20700;-75
2021/01/03 03:28:55;;;;;;;12.63;7.07;;;;;;;1.76;100.00;97375.47;5066298;28;20225;-75
2021/01/03 03:31:27;;;;;;;11.60;6.33;;;;;;;1.98;100.00;97371.41;5069497;28;20230;-74
2021/01/03 03:33:55;;;;;;;11.70;6.40;;;;;;;1.95;100.00;97366.44;5074124;28;20193;-76
2021/01/03 03:36:22;;;;;;;13.90;6.47;;;;;;;1.97;100.00;97367.94;5073608;28;20683;-76
2021/01/03 03:38:48;;;;;;;12.93;7.10;;;;;;;2.02;100.00;97360.38;5071846;28;20288;-74
2021/01/03 03:41:20;;;;;;;14.77;6.57;;;;;;;2.15;100.00;97358.09;5053178;28;20291;-75
2021/01/03 03:43:47;;;;;;;14.30;7.53;;;;;;;2.24;100.00;97357.06;5056533;28;20212;-76
2021/01/03 03:46:14;;;;;;;14.23;7.77;;;;;;;2.17;100.00;97360.53;5067837;28;20219;-76
2021/01/03 03:48:41;;;;;;;13.40;6.77;;;;;;;2.18;100.00;97357.72;5073460;28;20689;-76
2021/01/03 03:51:09;;;;;;;13.83;7.47;;;;;;;2.11;100.00;97348.88;5065491;28;20208;-75
2021/01/03 03:53:36;;;;;;;11.63;7.03;;;;;;;2.24;100.00;97351.81;5064248;28;20235;-76
2021/01/03 03:56:02;;;;;;;12.87;7.70;;;;;;;2.00;100.00;97348.38;5053783;28;20258;-75
2021/01/03 03:58:29;;;;;;;11.43;6.90;;;;;;;2.28;100.00;97347.03;5063269;28;20570;-75
2021/01/03 04:00:56;;;;;;;13.90;7.57;;;;;;;2.27;100.00;97354.13;5056982;28;20223;-75
2021/01/03 04:03:23;;;;;;;13.13;7.03;;;;;;;2.12;100.00;97347.88;5065588;28;20197;-76
2021/01/03 04:05:50;;;;;;;14.20;7.20;;;;;;;2.19;100.00;97338.31;5065799;28;20216;-76
2021/01/03 04:08:17;;;;;;;13.73;7.33;;;;;;;2.15;100.00;97346.72;5067145;28;20231;-75
2021/01/03 04:10:44;;;;;;;13.90;7.60;;;;;;;1.89;100.00;97351.31;5054523;28;20233;-75
2021/01/03 04:13:11;;;;;;;14.10;7.53;;;;;;;1.98;100.00;97350.34;5062552;28;20242;-75
2021/01/03 04:15:39;;;;;;;13.73;7.20;;;;;;;2.06;100.00;97348.53;5068156;28;20194;-76
2021/01/03 04:18:06;;;;;;;11.10;6.77;;;;;;;2.07;100.00;97349.34;5073331;28;20197;-75
2021/01/03 04:20:33;;;;;;;14.73;7.53;;;;;;;1.91;100.00;97349.34;5064643;28;20704;-73
2021/01/03 04:23:00;;;;;;;12.30;7.40;;;;;;;1.98;100.00;97350.34;5065767;28;20204;-74
2021/01/03 04:25:28;;;;;;;12.53;7.17;;;;;;;2.09;100.00;97352.66;5053172;28;20198;-75
2021/01/03 04:27:55;;;;;;;12.17;6.60;;;;;;;2.07;100.00;97355.44;5059516;28;20724;-75
2021/01/03 04:30:23;;;;;;;10.87;6.90;;;;;;;2.02;100.00;97346.38;5063685;28;20221;-74
2021/01/03 04:32:50;;;;;;;12.37;7.30;;;;;;;1.99;100.00;97346.72;5064053;28;20216;-73
2021/01/03 04:35:18;;;;;;;14.10;7.57;;;;;;;1.84;100.00;97343.91;5073283;28;20201;-73
2021/01/03 04:37:45;;;;;;;16.23;7.80;;;;;;;2.05;100.00;97353.97;5070685;28;20200;-73
2021/01/03 04:40:17;;;;;;;12.60;6.93;;;;;;;2.06;100.00;97351.16;5045583;28;20606;-76
2021/01/03 04:42:45;;;;;;;13.60;6.80;;;;;;;2.14;100.00;97351.16;5062425;28;20205;-75
2021/01/03 04:45:18;;;;;;;15.50;7.53;;;;;;;1.96;100.00;97357.56;5068046;28;20676;-72
2021/01/03 04:47:52;;;;;;;13.70;7.43;;;;;;;2.01;100.00;97356.09;5060780;28;20880;-76
2021/01/03 04:50:31;;;;;;;14.63;8.13;;;;;;;2.06;100.00;97353.78;5062449;28;20226;-75
2021/01/03 04:53:05;;;;;;;13.83;7.40;;;;;;;1.81;100.00;97354.75;5053594;28;20201;-75
2021/01/03 04:55:34;;;;;;;14.77;7.87;;;;;;;2.03;100.00;97364.63;5052474;28;20194;-75
2021/01/03 04:58:08;;;;;;;15.93;8.47;;;;;;;2.06;100.00;97366.13;5065942;28;20204;-75
2021/01/03 05:00:39;;;;;;;13.60;7.47;;;;;;;2.23;100.00;97368.59;5064581;28;20227;-75
2021/01/03 05:03:38;;;;;;;14.73;7.30;;;;;;;2.17;100.00;97368.41;5072447;28;20197;-75
2021/01/03 05:06:09;;;;;;;12.50;7.20;;;;;;;2.09;100.00;97363.97;5072774;28;20529;-75
2021/01/03 05:08:41;;;;;;;17.23;7.90;;;;;;;2.22;100.00;97364.31;5063185;28;20209;-75
2021/01/03 05:11:12;;;;;;;14.30;7.63;;;;;;;2.15;100.00;97363.34;5050596;28;20463;-75
2021/01/03 05:14:04;;;;;;;14.63;7.87;;;;;;;1.99;100.00;97373.03;5072185;28;20200;-75
2021/01/03 05:16:31;;;;;;;14.87;7.43;;;;;;;2.14;100.00;97372.19;5064262;28;20197;-76
2021/01/03 05:18:58;;;;;;;14.30;7.23;;;;;;;2.20;100.00;97374.16;5065485;28;20196;-75
2021/01/03 05:21:25;;;;;;;14.77;8.17;;;;;;;2.28;100.00;97382.09;5066278;28;20731;-75
2021/01/03 05:24:02;;;;;;;15.37;8.07;;;;;;;2.03;100.00;97374.34;5060653;28;20210;-75
2021/01/03 05:26:33;;;;;;;14.43;7.93;;;;;;;1.93;100.00;97373.69;5056433;28;20572;-76
2021/01/03 05:29:01;;;;;;;14.50;7.93;;;;;;;2.05;100.00;97373.22;5048380;28;20246;-75
2021/01/03 05:31:29;;;;;;;13.17;6.90;;;;;;;2.04;100.00;97370.75;5072085;28;20217;-75
2021/01/03 05:33:57;;;;;;;13.53;7.90;;;;;;;2.04;100.00;97376.00;5060218;28;20206;-75
2021/01/03 05:36:31;;;;;;;16.50;8.60;;;;;;;2.16;100.00;97372.88;5061255;28;20206;-75
2021/01/03 05:38:58;;;;;;;16.13;8.73;;;;;;;1.93;100.00;97374.50;5045545;28;20197;-75
2021/01/03 05:41:36;;;;;;;15.60;8.20;;;;;;;2.13;100.00;97375.03;5096085;22;20270;-73
2021/01/03 05:44:11;;;;;;;14.43;7.73;;;;;;;1.95;100.00;97375.19;5092287;28;20207;-73
2021/01/03 05:46:42;;;;;;;14.53;7.87;;;;;;;2.05;100.00;97375.84;5102417;28;20195;-73
2021/01/03 05:49:13;;;;;;;16.23;8.13;;;;;;;2.04;100.00;97370.75;5102132;28;20268;-73
2021/01/03 05:51:43;;;;;;;16.67;8.43;;;;;;;1.98;100.00;97372.19;5089544;28;20274;-73
2021/01/03 05:54:13;;;;;;;16.77;9.03;;;;;;;2.02;100.00;97378.78;5095659;28;20551;-74
2021/01/03 05:56:41;;;;;;;13.03;7.73;;;;;;;1.78;100.00;97370.84;5104075;28;20273;-73
2021/01/03 05:59:13;;;;;;;14.67;8.23;;;;;;;1.87;100.00;97369.88;5103605;28;20207;-73
2021/01/03 06:01:40;;;;;;;16.00;8.50;;;;;;;1.92;100.00;97372.84;5095013;28;20221;-73
2021/01/03 06:04:11;;;;;;;17.20;7.83;;;;;;;2.17;100.00;97371.06;5089660;28;20672;-73
2021/01/03 06:06:53;;;;;;;17.33;8.90;;;;;;;2.04;100.00;97373.38;5105829;28;20207;-74
2021/01/03 06:09:23;;;;;;;17.50;8.67;;;;;;;2.05;100.00;97373.22;5102870;28;20270;-74
2021/01/03 06:12:00;;;;;;;18.27;8.60;;;;;;;2.10;100.00;97375.34;5101652;28;20757;-74
2021/01/03 06:14:29;;;;;;;17.93;9.03;;;;;;;1.97;100.00;97377.63;5106502;28;20218;-74
2021/01/03 06:17:05;;;;;;;17.07;9.30;;;;;;;2.09;100.00;97379.75;5094453;28;20207;-74
2021/01/03 06:19:36;;;;;;;18.00;8.87;;;;;;;2.01;100.00;97379.78;5097795;28;20199;-74
2021/01/03 06:22:10;;;;;;;15.20;8.63;;;;;;;1.80;100.00;97383.84;5103602;28;20354;-74
2021/01/03 06:24:41;;;;;;;22.40;9.60;;;;;;;1.97;100.00;97380.25;5106538;28;20200;-74
2021/01/03 06:27:14;;;;;;;19.60;9.37;;;;;;;1.97;100.00;97375.81;5100620;28;20200;-74
2021/01/03 06:29:47;;;;;;;16.17;8.87;;;;;;;2.18;100.00;97370.91;5106936;28;20204;-74
2021/01/03 06:32:33;;;;;;;17.50;8.57;;;;;;;2.10;100.00;97375.34;5088888;28;20220;-74
2021/01/03 06:35:04;;;;;;;15.90;9.23;;;;;;;2.03;100.00;97371.72;5093032;28;20269;-73
2021/01/03 06:37:41;;;;;;;15.80;8.30;;;;;;;2.22;100.00;97371.38;5108695;28;20210;-74
2021/01/03 06:40:12;;;;;;;16.77;9.27;;;;;;;2.23;100.00;97373.84;5099174;28;20568;-74
2021/01/03 06:43:18;;;;;;;15.90;8.73;;;;;;;2.22;100.00;97369.59;5100976;28;20196;-74
2021/01/03 06:46:12;;;;;;;15.57;8.47;;;;;;;2.13;100.00;97375.81;5097768;28;20277;-74
2021/01/03 06:49:01;;;;;;;16.43;9.07;;;;;;;2.13;100.00;97378.47;5091236;28;20227;-74
2021/01/03 06:51:36;;;;;;;13.50;7.47;;;;;;;1.92;100.00;97385.19;5098865;28;20270;-74
2021/01/03 06:54:36;;;;;;;15.33;8.77;;;;;;;1.77;100.00;97384.16;5097154;28;20651;-74
2021/01/03 06:57:32;;;;;;;18.97;9.23;;;;;;;1.96;100.00;97384.72;5092074;28;20355;-73
2021/01/03 07:00:14;;;;;;;15.67;8.00;;;;;;;1.99;100.00;97386.19;5096343;28;20199;-74
2021/01/03 07:02:45;;;;;;;16.43;8.57;;;;;;;2.06;100.00;97380.09;5089630;28;20661;-73
2021/01/03 07:05:13;;;;;;;14.73;7.23;;;;;;;2.04;100.00;97381.25;5094411;28;20204;-74
2021/01/03 07:07:44;;;;;;;15.07;8.37;;;;;;;2.20;100.00;97384.69;5102239;28;20287;-72
2021/01/03 07:10:16;;;;;;;15.43;8.07;;;;;;;2.09;100.00;97386.84;5106226;28;20211;-73
2021/01/03 07:12:44;;;;;;;16.50;8.43;;;;;;;1.95;100.00;97390.97;5103914;28;20246;-73
2021/01/03 07:15:14;;;;;;;16.80;8.23;;;;;;;2.25;100.00;97394.75;5104683;28;20208;-73
2021/01/03 07:18:01;;;;;;;18.97;9.43;;;;;;;1.96;100.00;97397.03;5094615;28;20200;-73
2021/01/03 07:20:33;;;;;;;15.57;9.23;;;;;;;1.83;100.00;97402.75;5102243;28;20681;-75
2021/01/03 07:23:08;;;;;;;16.70;8.83;;;;;;;1.86;100.00;97402.44;5110514;28;20195;-73
2021/01/03 07:25:54;;;;;;;17.37;8.80;;;;;;;2.22;100.00;97392.44;5106106;28;20199;-73
2021/01/03 07:28:25;;;;;;;18.47;9.30;;;;;;;2.02;100.00;97394.56;5091001;28;20280;-73
2021/01/03 07:30:59;;;;;;;20.03;9.47;;;;;;;1.86;100.00;97396.34;5097642;28;20232;-73
2021/01/03 07:33:46;;;;;;;18.33;9.27;;;;;;;2.06;100.00;97397.69;5094295;28;20207;-74
2021/01/03 07:36:20;;;;;;;18.37;9.03;;;;;;;2.21;100.00;97396.06;5103222;28;20250;-74
2021/01/03 07:39:09;;;;;;;16.30;8.13;;;;;;;2.11;100.00;97403.28;5103911;28;20208;-74
2021/01/03 07:41:36;;;;;;;18.80;8.77;;;;;;;2.23;100.00;97408.06;5107118;28;20258;-74
2021/01/03 07:44:05;;;;;;;17.40;8.80;;;;;;;2.12;100.00;97403.13;5103898;28;20577;-74
2021/01/03 07:46:45;;;;;;;17.27;8.60;;;;;;;2.22;100.00;97409.06;5091232;28;20200;-73
2021/01/03 07:49:33;;;;;;;15.63;8.37;;;;;;;2.14;100.00;97416.94;5101833;28;20215;-75
2021/01/03 07:52:01;;;;;;;18.17;9.93;;;;;;;2.31;100.00;97416.00;5102391;28;20219;-76
2021/01/03 07:54:27;;;;;;;13.17;7.83;;;;;;;2.39;100.00;97418.59;5110753;28;20208;-74
2021/01/03 07:56:54;;;;;;;16.53;8.63;;;;;;;2.19;100.00;97422.53;5114105;28;20221;-75
2021/01/03 07:59:21;;;;;;;15.43;8.90;;;;;;;2.44;100.00;97418.94;5107321;28;20200;-73
2021/01/03 08:01:50;;;;;;;18.27;9.20;;;;;;;2.19;100.00;97419.09;5093872;28;20765;-73
2021/01/03 08:04:24;;;;;;;20.27;9.33;;;;;;;2.16;100.00;97419.41;5097676;28;20211;-73
2021/01/03 08:07:01;;;;;;;15.77;8.07;;;;;;;2.28;100.00;97418.09;5092669;28;20218;-73
2021/01/03 08:09:30;;;;;;;18.27;9.37;;;;;;;2.25;100.00;97415.81;5094194;28;20208;-72
2021/01/03 08:12:06;;;;;;;19.43;9.17;;;;;;;2.31;100.00;97415.16;5094123;28;20216;-73
2021/01/03 08:14:34;;;;;;;17.07;8.53;;;;;;;2.58;100.00;97418.28;5084887;28;20265;-73
2021/01/03 08:17:01;;;;;;;17.20;8.70;;;;;;;2.67;100.00;97405.91;5101816;28;20282;-75
2021/01/03 08:19:30;;;;;;;16.83;8.30;;;;;;;2.38;100.00;97421.38;5092693;28;20200;-76
2021/01/03 08:21:59;;;;;;;17.27;8.10;;;;;;;2.38;100.00;97424.03;5103830;28;20620;-74
2021/01/03 08:24:28;;;;;;;16.47;7.70;;;;;;;2.46;100.00;97424.03;5099693;28;20200;-76
2021/01/03 08:26:57;;;;;;;16.57;8.10;;;;;;;2.44;100.00;97424.19;5106148;28;20211;-77
2021/01/03 08:29:34;;;;;;;14.97;8.43;;;;;;;2.40;100.00;97422.88;5086770;28;20224;-75
2021/01/03 08:32:06;;;;;;;15.30;7.63;;;;;;;2.75;100.00;97433.06;5102504;28;20215;-74
2021/01/03 08:34:35;;;;;;;14.97;7.90;;;;;;;2.86;100.00;97419.56;5097632;28;20212;-75
2021/01/03 08:37:13;;;;;;;18.92;9.80;;;;;;;2.46;100.00;97430.13;5103716;28;20478;-73
2021/01/03 08:39:40;;;;;;;17.10;9.87;;;;;;;2.44;100.00;97428.66;5099933;28;20199;-77
2021/01/03 08:42:09;;;;;;;15.93;8.43;;;;;;;2.85;100.00;97427.63;5109463;28;20235;-78
2021/01/03 08:44:37;;;;;;;16.30;8.95;;;;;;;2.74;100.00;97436.69;5091162;28;20438;-76
2021/01/03 08:47:07;;;;;;;14.00;9.03;;;;;;;2.73;100.00;97432.41;5095086;28;20200;-76
2021/01/03 08:49:34;;;;;;;19.33;8.27;;;;;;;3.05;100.00;97440.25;5104989;28;20635;-77
2021/01/03 08:52:16;;;;;;;14.77;8.47;;;;;;;2.97;100.00;97436.81;5112965;27;20224;-75
2021/01/03 08:54:45;;;;;;;16.10;8.43;;;;;;;3.12;100.00;97432.50;5096196;28;20236;-81
2021/01/03 08:57:11;;;;;;;12.57;7.03;;;;;;;2.98;100.00;97446.38;5102939;28;20240;-84
2021/01/03 08:59:39;;;;;;;13.17;7.53;;;;;;;2.80;100.00;97446.56;5099595;28;20204;-76
2021/01/03 09:02:19;;;;;;;13.27;7.23;;;;;;;2.88;100.00;97451.84;5092369;28;20240;-74
2021/01/03 09:04:46;;;;;;;12.20;7.37;;;;;;;2.79;100.00;97452.03;5108543;28;20283;-73
2021/01/03 09:07:15;;;;;;;11.30;6.73;;;;;;;2.80;100.00;97453.66;5095304;28;20208;-73
2021/01/03 09:09:46;;;;;;;10.77;6.97;;;;;;;2.90;100.00;97455.13;5091941;28;20228;-76
2021/01/03 09:12:13;;;;;;;12.93;7.57;;;;;;;2.51;100.00;97458.59;5098917;28;20224;-73
2021/01/03 09:14:47;;;;;;;14.77;7.87;;;;;;;2.65;100.00;97461.38;5109949;28;20204;-75
2021/01/03 09:17:21;;;;;;;17.10;7.93;;;;;;;2.59;100.00;97462.06;5098094;28;20214;-75
2021/01/03 09:19:54;;;;;;;12.73;6.77;;;;;;;2.65;100.00;97466.66;5092799;28;20242;-75
2021/01/03 09:22:30;;;;;;;11.57;6.67;;;;;;;2.87;100.00;97462.53;5092315;28;20215;-74
2021/01/03 09:25:04;;;;;;;10.73;6.77;;;;;;;2.66;100.00;97463.06;5099676;28;20604;-74
2021/01/03 09:27:32;;;;;;;13.67;6.90;;;;;;;3.02;100.00;97466.13;5102392;28;20207;-74
2021/01/03 09:30:13;;;;;;;12.47;7.47;;;;;;;2.77;100.00;97475.88;5097885;28;20223;-76
2021/01/03 09:32:41;;;;;;;12.40;7.07;;;;;;;3.21;100.00;97465.78;5092572;28;20208;-75
2021/01/03 09:35:12;;;;;;;11.00;6.50;;;;;;;2.81;100.00;97479.00;5090446;28;20699;-76
2021/01/03 09:37:41;;;;;;;15.37;7.63;;;;;;;3.04;100.00;97472.06;5099702;28;20691;-75
2021/01/03 09:40:27;;;;;;;14.40;7.33;;;;;;;3.19;100.00;97473.84;5092584;28;20203;-75
2021/01/03 09:43:14;;;;;;;14.77;7.43;;;;;;;3.25;100.00;97469.72;5089812;28;20210;-75
2021/01/03 09:46:00;;;;;;;13.47;7.17;;;;;;;2.93;100.00;97475.88;5103262;28;20207;-75
2021/01/03 09:48:30;;;;;;;12.83;7.50;;;;;;;3.23;100.00;97477.81;5100076;28;20633;-75
2021/01/03 09:51:24;;;;;;;12.23;7.40;;;;;;;3.27;100.00;97473.84;5094563;28;20227;-75
2021/01/03 09:54:06;;;;;;;12.60;6.87;;;;;;;3.53;100.00;97477.06;5094070;28;20218;-75
2021/01/03 09:56:35;;;;;;;13.43;7.23;;;;;;;3.42;100.00;97474.78;5105551;28;20209;-74
2021/01/03 09:59:14;;;;;;;13.27;7.30;;;;;;;2.99;100.00;97475.19;5102620;28;20196;-72
2021/01/03 10:01:43;;;;;;;12.23;6.70;;;;;;;3.48;100.00;97473.28;5108515;28;20219;-75
2021/01/03 10:04:17;;;;;;;11.37;6.60;;;;;;;3.79;100.00;97471.50;5092947;28;20663;-74
2021/01/03 10:06:46;;;;;;;13.73;7.47;;;;;;;3.38;100.00;97470.00;5101633;28;20208;-74
2021/01/03 10:09:15;;;;;;;12.73;6.97;;;;;;;3.75;100.00;97465.75;5093600;28;20225;-75
2021/01/03 10:11:43;;;;;;;11.47;7.03;;;;;;;3.77;100.00;97462.94;5107680;28;20729;-75
2021/01/03 10:14:12;;;;;;;11.90;6.30;;;;;;;3.77;100.00;97466.38;5102021;28;20203;-76
2021/01/03 10:16:41;;;;;;;11.57;6.13;;;;;;;4.34;100.00;97465.09;5096205;28;20196;-75
2021/01/03 10:19:19;;;;;;;12.60;6.47;;;;;;;4.37;100.00;97461.28;5091620;28;20206;-75
2021/01/03 10:21:46;;;;;;;11.97;6.67;;;;;;;3.66;100.00;97458.84;5107995;28;20227;-74
2021/01/03 10:24:18;;;;;;;10.77;6.17;;;;;;;3.64;100.00;97463.50;5101004;28;20206;-74
2021/01/03 10:26:46;;;;;;;10.90;5.87;;;;;;;3.85;100.00;97455.81;5108252;28;20295;-75
2021/01/03 10:29:14;;;;;;;11.03;6.20;;;;;;;3.50;100.00;97458.13;5100839;28;20249;-74
2021/01/03 10:31:44;;;;;;;9.77;6.27;;;;;;;3.66;100.00;97456.22;5091526;28;20233;-73
2021/01/03 10:34:11;;;;;;;9.90;5.67;;;;;;;3.81;100.00;97451.06;5091901;28;20596;-73
2021/01/03 10:36:38;;;;;;;12.17;6.43;;;;;;;3.29;100.00;97460.47;5108136;28;20205;-75
2021/01/03 10:39:08;;;;;;;9.40;5.63;;;;;;;3.76;100.00;97458.66;5097610;28;20201;-73
2021/01/03 10:41:37;;;;;;;13.17;7.03;;;;;;;3.80;100.00;97450.22;5100541;28;20234;-74
2021/01/03 10:44:05;;;;;;;11.70;5.80;;;;;;;4.13;100.00;97445.59;5106319;28;20201;-75
2021/01/03 10:46:32;;;;;;;11.10;6.43;;;;;;;3.55;100.00;97453.97;5096166;28;20690;-74
2021/01/03 10:48:58;;;;;;;12.53;6.63;;;;;;;3.93;100.00;97445.22;5092643;28;20224;-75
2021/01/03 10:51:33;;;;;;;9.73;5.93;;;;;;;3.56;100.00;97447.69;5109804;28;20224;-74
2021/01/03 10:54:00;;;;;;;11.70;6.90;;;;;;;3.56;100.00;97447.69;5101316;28;20199;-76
2021/01/03 10:56:27;;;;;;;10.57;6.47;;;;;;;3.42;100.00;97450.22;5103636;28;20209;-75
2021/01/03 10:58:55;;;;;;;9.87;6.13;;;;;;;3.05;100.00;97445.53;5102618;28;20196;-74
2021/01/03 11:01:22;;;;;;;11.40;5.83;;;;;;;3.48;100.00;97444.25;5094429;28;20753;-75
2021/01/03 11:03:50;;;;;;;10.90;6.70;;;;;;;3.46;100.00;97446.25;5112162;28;20213;-74
2021/01/03 11:06:17;;;;;;;12.13;6.80;;;;;;;3.08;100.00;97441.75;5104798;28;20204;-76
2021/01/03 11:08:43;;;;;;;10.40;6.53;;;;;;;3.32;100.00;97444.31;5101417;28;20239;-75
2021/01/03 11:11:10;;;;;;;13.30;7.50;;;;;;;3.58;100.00;97443.06;5094416;28;20583;-75
2021/01/03 11:13:41;;;;;;;12.77;6.93;;;;;;;3.51;100.00;97438.66;5110918;28;20210;-75
2021/01/03 11:16:09;;;;;;;13.53;7.13;;;;;;;3.33;100.00;97438.88;5106456;28;20220;-75
2021/01/03 11:18:36;;;;;;;12.53;6.70;;;;;;;3.10;100.00;97443.22;5108758;28;20208;-74
2021/01/03 11:21:03;;;;;;;11.63;7.17;;;;;;;3.23;100.00;97446.16;5105854;28;20229;-75
2021/01/03 11:23:29;;;;;;;12.97;6.43;;;;;;;3.40;100.00;97439.84;5099422;28;20200;-75
2021/01/03 11:25:56;;;;;;;15.17;7.77;;;;;;;3.12;100.00;97435.16;5093789;28;20783;-76
2021/01/03 11:28:23;;;;;;;14.37;7.97;;;;;;;3.43;100.00;97436.03;5107502;28;20246;-74
2021/01/03 11:30:50;;;;;;;11.90;7.07;;;;;;;3.56;100.00;97437.13;5107445;28;20378;-73
2021/01/03 11:33:18;;;;;;;14.13;7.70;;;;;;;3.31;100.00;97427.66;5108996;28;20668;-73
2021/01/03 11:35:44;;;;;;;12.70;6.80;;;;;;;3.37;100.00;97434.91;5100845;28;20220;-74
2021/01/03 11:38:11;;;;;;;12.63;7.40;;;;;;;3.33;100.00;97430.97;5101434;28;20251;-74
2021/01/03 11:40:38;;;;;;;11.97;7.00;;;;;;;3.76;100.00;97427.00;5087082;28;20611;-73
2021/01/03 11:43:05;;;;;;;12.30;7.27;;;;;;;3.34;100.00;97431.78;5110678;28;20208;-75